Time;durP1;ratioP1;P1;durP2;ratioP2;P2;SDS_P1;SDS_P2;PMS_P1;PMS_P2;Temp;Humidity;BMP_temperature;BMP_pressure;BME280_temperature;BME280_humidity;BME280_pressure;Samples;Min_cycle;Max_cycle;Signal;HPM_P1;HPM_P2
2022/02/15 00:00:34;;;;;;;1.30;1.20;;;9.30;99.90;;;;;;5134419;27;20208;-68
2022/02/15 00:03:01;;;;;;;1.30;1.20;;;9.20;99.90;;;;;;5134228;27;20201;-68
2022/02/15 00:05:28;;;;;;;1.48;1.25;;;9.30;99.90;;;;;;5133791;27;20224;-67
2022/02/15 00:07:55;;;;;;;1.00;1.00;;;9.20;99.90;;;;;;5134267;27;20205;-67
2022/02/15 00:10:22;;;;;;;0.90;0.90;;;9.30;99.90;;;;;;5133804;27;20204;-67
2022/02/15 00:12:48;;;;;;;1.10;1.00;;;9.30;99.90;;;;;;5133954;27;20204;-68
2022/02/15 00:15:15;;;;;;;1.58;1.27;;;9.30;99.90;;;;;;5133834;27;20227;-69
2022/02/15 00:17:43;;;;;;;1.05;1.00;;;9.30;99.90;;;;;;5133927;27;20652;-69
2022/02/15 00:20:12;;;;;;;2.17;1.42;;;9.30;99.90;;;;;;5133790;27;20295;-69
2022/02/15 00:22:39;;;;;;;1.30;1.20;;;9.30;99.90;;;;;;5134237;27;20207;-69
2022/02/15 00:25:08;;;;;;;1.40;1.30;;;9.30;99.90;;;;;;5133716;27;20204;-69
2022/02/15 00:27:34;;;;;;;1.70;1.60;;;9.30;99.90;;;;;;5133561;27;20204;-68
2022/02/15 00:30:01;;;;;;;1.90;1.60;;;9.30;99.90;;;;;;5133984;27;20291;-68
2022/02/15 00:32:28;;;;;;;1.83;1.50;;;9.30;99.90;;;;;;5133930;27;20647;-68
2022/02/15 00:34:56;;;;;;;1.60;1.50;;;9.30;99.90;;;;;;5133666;27;20240;-69
2022/02/15 00:37:23;;;;;;;1.80;1.70;;;9.30;99.90;;;;;;5133838;27;20307;-68
2022/02/15 00:39:50;;;;;;;1.75;1.65;;;9.40;99.90;;;;;;5133408;27;20201;-69
2022/02/15 00:42:17;;;;;;;2.47;1.75;;;9.40;99.90;;;;;;5133420;27;20203;-69
2022/02/15 00:44:44;;;;;;;1.90;1.80;;;9.30;99.90;;;;;;5133556;27;20311;-69
2022/02/15 00:47:10;;;;;;;2.17;1.98;;;9.30;99.90;;;;;;5133442;27;20223;-69
2022/02/15 00:49:37;;;;;;;2.00;1.90;;;9.30;99.90;;;;;;5133309;27;20207;-68
2022/02/15 00:52:06;;;;;;;2.22;2.13;;;9.30;99.90;;;;;;5133730;27;20207;-69
2022/02/15 00:54:33;;;;;;;1.90;1.80;;;9.30;99.90;;;;;;5133311;27;20204;-69
2022/02/15 00:57:00;;;;;;;2.20;2.10;;;9.30;99.90;;;;;;5133266;27;20740;-68
2022/02/15 00:59:27;;;;;;;2.15;2.05;;;9.30;99.90;;;;;;5133514;27;20291;-69
2022/02/15 01:01:54;;;;;;;2.67;2.47;;;9.20;99.90;;;;;;5133210;27;20704;-68
2022/02/15 01:04:20;;;;;;;2.20;2.00;;;9.20;99.90;;;;;;5133212;27;20666;-68
2022/02/15 01:06:47;;;;;;;2.30;2.08;;;9.20;99.90;;;;;;5133040;27;20213;-68
2022/02/15 01:09:16;;;;;;;2.50;2.30;;;9.10;99.90;;;;;;5133449;27;20204;-68
2022/02/15 01:11:42;;;;;;;2.40;2.20;;;9.00;99.90;;;;;;5133266;27;20197;-68
2022/02/15 01:14:09;;;;;;;2.30;2.10;;;9.00;99.90;;;;;;5132940;27;20296;-68
2022/02/15 01:16:36;;;;;;;2.30;2.08;;;9.00;99.90;;;;;;5132829;27;20311;-68
2022/02/15 01:19:03;;;;;;;2.28;2.08;;;9.00;99.90;;;;;;5133331;27;20205;-69
2022/02/15 01:21:30;;;;;;;2.40;1.88;;;9.00;99.90;;;;;;5132882;27;20228;-68
2022/02/15 01:23:57;;;;;;;2.17;1.95;;;8.90;99.90;;;;;;5133096;27;20200;-68
2022/02/15 01:26:25;;;;;;;2.25;2.13;;;8.90;99.90;;;;;;5132801;27;20252;-67
2022/02/15 01:28:52;;;;;;;3.72;2.35;;;8.80;99.90;;;;;;5133328;27;20219;-67
2022/02/15 01:31:19;;;;;;;2.30;1.95;;;8.80;99.90;;;;;;5133993;27;20290;-67
2022/02/15 01:33:46;;;;;;;2.47;2.28;;;8.80;99.90;;;;;;5137360;27;20211;-67
2022/02/15 01:36:13;;;;;;;2.25;2.05;;;8.70;99.90;;;;;;5136795;27;20223;-67
2022/02/15 01:38:40;;;;;;;2.83;2.15;;;8.60;99.90;;;;;;5136845;27;20215;-67
2022/02/15 01:41:08;;;;;;;2.40;2.20;;;8.50;99.90;;;;;;5137200;27;20223;-67
2022/02/15 01:43:41;;;;;;;2.10;1.90;;;8.50;99.90;;;;;;5136957;27;20227;-67
2022/02/15 01:46:08;;;;;;;2.38;2.05;;;8.40;99.90;;;;;;5136769;27;20312;-68
2022/02/15 01:48:35;;;;;;;2.40;2.08;;;8.40;99.90;;;;;;5137225;27;20257;-67
2022/02/15 01:51:06;;;;;;;2.63;2.05;;;8.40;99.90;;;;;;5136684;27;20250;-68
2022/02/15 01:53:33;;;;;;;2.10;1.92;;;8.40;99.90;;;;;;5136595;27;20255;-67
2022/02/15 01:56:01;;;;;;;2.40;1.90;;;8.40;99.90;;;;;;5136608;27;20578;-67
2022/02/15 01:58:28;;;;;;;2.70;1.95;;;8.50;99.90;;;;;;5136444;27;20311;-68
2022/02/15 02:00:56;;;;;;;1.80;1.70;;;8.50;99.90;;;;;;5136641;27;20216;-67
2022/02/15 02:03:23;;;;;;;2.28;2.08;;;8.40;99.90;;;;;;5136352;27;20205;-67
2022/02/15 02:05:49;;;;;;;2.45;1.90;;;8.40;99.90;;;;;;5136682;27;20231;-67
2022/02/15 02:08:17;;;;;;;1.97;1.70;;;8.40;99.90;;;;;;5136596;27;20280;-67
2022/02/15 02:10:44;;;;;;;2.20;2.00;;;8.40;99.90;;;;;;5136312;27;20456;-67
2022/02/15 02:13:11;;;;;;;2.35;2.15;;;8.40;99.90;;;;;;5136265;27;20203;-67
2022/02/15 02:15:38;;;;;;;1.98;1.85;;;8.30;99.90;;;;;;5136249;27;20273;-67
2022/02/15 02:18:07;;;;;;;3.10;1.92;;;8.30;99.90;;;;;;5137766;27;20220;-68
2022/02/15 02:20:34;;;;;;;4.18;2.10;;;8.30;99.90;;;;;;5137424;27;20308;-68
2022/02/15 02:23:03;;;;;;;2.42;2.00;;;8.40;99.90;;;;;;5137714;27;20197;-68
2022/02/15 02:25:30;;;;;;;3.75;2.50;;;8.40;99.90;;;;;;5137284;27;20227;-68
2022/02/15 02:27:59;;;;;;;2.70;2.45;;;8.50;99.90;;;;;;5137524;27;20303;-68
2022/02/15 02:30:26;;;;;;;2.40;2.05;;;8.40;99.90;;;;;;5137335;27;20588;-68
2022/02/15 02:32:53;;;;;;;2.50;1.98;;;8.40;99.90;;;;;;5137263;27;20676;-68
2022/02/15 02:35:21;;;;;;;2.30;1.95;;;8.50;99.90;;;;;;5137513;27;20227;-67
2022/02/15 02:37:49;;;;;;;2.13;1.90;;;8.50;99.90;;;;;;5137399;27;20220;-68
2022/02/15 02:40:17;;;;;;;2.35;2.03;;;8.40;99.90;;;;;;5137244;27;20558;-68
2022/02/15 02:42:45;;;;;;;3.40;2.00;;;8.40;99.90;;;;;;5135777;27;20204;-68
2022/02/15 02:45:13;;;;;;;3.65;1.95;;;8.40;99.90;;;;;;5136905;27;20730;-68
2022/02/15 02:47:43;;;;;;;3.20;1.80;;;8.40;99.90;;;;;;5137236;27;20211;-68
2022/02/15 02:50:10;;;;;;;1.90;1.80;;;8.30;99.90;;;;;;5137122;27;20227;-68
2022/02/15 02:52:37;;;;;;;1.95;1.70;;;8.30;99.90;;;;;;5136939;27;20243;-68
2022/02/15 02:55:05;;;;;;;2.00;1.90;;;8.20;99.90;;;;;;5137814;27;20226;-68
2022/02/15 02:57:35;;;;;;;2.13;1.98;;;8.20;99.90;;;;;;5137066;27;20603;-68
2022/02/15 03:00:04;;;;;;;3.10;2.30;;;8.20;99.90;;;;;;5137235;27;20207;-68
2022/02/15 03:02:31;;;;;;;3.17;2.42;;;8.20;99.90;;;;;;5137007;27;20543;-68
2022/02/15 03:04:58;;;;;;;2.17;2.08;;;8.20;99.90;;;;;;5136858;27;20390;-68
2022/02/15 03:07:25;;;;;;;2.60;2.33;;;8.20;99.90;;;;;;5136870;27;20199;-68
2022/02/15 03:09:51;;;;;;;2.60;2.20;;;8.30;99.90;;;;;;5136618;27;20730;-67
2022/02/15 03:12:18;;;;;;;2.60;1.95;;;8.20;99.90;;;;;;5136944;27;20224;-68
2022/02/15 03:14:47;;;;;;;2.45;1.95;;;8.20;99.90;;;;;;5136747;27;20236;-68
2022/02/15 03:17:15;;;;;;;2.38;1.95;;;8.10;99.90;;;;;;5136184;27;20220;-68
2022/02/15 03:19:43;;;;;;;2.20;2.00;;;8.10;99.90;;;;;;5136467;27;20204;-68
2022/02/15 03:22:09;;;;;;;3.05;1.95;;;8.10;99.90;;;;;;5136281;27;20205;-68
2022/02/15 03:24:37;;;;;;;3.28;2.10;;;8.10;99.90;;;;;;5136534;27;20392;-68
2022/02/15 03:27:04;;;;;;;2.75;2.10;;;8.10;99.90;;;;;;5136317;27;20233;-68
2022/02/15 03:29:31;;;;;;;4.47;2.38;;;8.20;99.90;;;;;;5136551;27;20181;-68
2022/02/15 03:31:59;;;;;;;2.50;2.10;;;8.20;99.90;;;;;;5136268;27;20196;-68
2022/02/15 03:34:26;;;;;;;5.72;1.83;;;8.20;99.90;;;;;;5136301;27;20197;-68
2022/02/15 03:36:53;;;;;;;3.92;2.15;;;8.20;99.90;;;;;;5135823;27;20224;-68
2022/02/15 03:39:20;;;;;;;3.03;2.13;;;8.20;99.90;;;;;;5136208;27;20677;-68
2022/02/15 03:44:31;;;;;;;2.83;2.15;;;8.20;99.90;;;;;;5136322;27;20179;-68
2022/02/15 03:46:59;;;;;;;2.47;2.28;;;8.30;99.90;;;;;;5136090;27;20577;-68
2022/02/15 03:49:25;;;;;;;3.78;2.30;;;8.30;99.90;;;;;;5135973;27;20761;-68
2022/02/15 03:51:52;;;;;;;2.67;1.88;;;8.30;99.90;;;;;;5135801;27;20223;-68
2022/02/15 03:54:19;;;;;;;3.58;2.00;;;8.40;99.90;;;;;;5135651;27;20223;-68
2022/02/15 03:56:46;;;;;;;3.22;2.00;;;8.50;99.90;;;;;;5135853;27;20223;-68
2022/02/15 03:59:13;;;;;;;2.25;2.00;;;8.50;99.90;;;;;;5136027;27;20648;-68
2022/02/15 04:01:40;;;;;;;1.70;1.60;;;8.50;99.90;;;;;;5135475;27;20201;-68
2022/02/15 04:04:08;;;;;;;2.85;1.80;;;8.50;99.90;;;;;;5135821;27;20236;-68
2022/02/15 04:06:34;;;;;;;4.32;2.03;;;8.50;99.90;;;;;;5135705;27;20228;-68
2022/02/15 04:09:01;;;;;;;2.05;1.95;;;8.50;99.90;;;;;;5135519;27;20288;-68
2022/02/15 04:11:28;;;;;;;2.33;2.13;;;8.60;99.90;;;;;;5135515;27;20228;-68
2022/02/15 04:13:55;;;;;;;2.90;2.10;;;8.50;99.90;;;;;;5135540;27;20287;-68
2022/02/15 04:16:22;;;;;;;3.20;1.88;;;8.60;99.90;;;;;;5135499;27;20220;-68
2022/02/15 04:18:49;;;;;;;2.25;1.73;;;8.60;99.90;;;;;;5135543;27;20311;-68
2022/02/15 04:21:23;;;;;;;2.17;1.67;;;8.60;99.90;;;;;;5135282;27;20207;-68
2022/02/15 04:23:50;;;;;;;2.47;1.90;;;8.50;99.90;;;;;;5135424;27;20185;-68
2022/02/15 04:26:17;;;;;;;1.58;1.38;;;8.50;99.90;;;;;;5135328;27;20581;-68
2022/02/15 04:28:44;;;;;;;1.70;1.60;;;8.50;99.90;;;;;;5135505;27;20548;-68
2022/02/15 04:31:13;;;;;;;1.60;1.50;;;8.50;99.90;;;;;;5134778;27;20231;-68
2022/02/15 04:33:40;;;;;;;4.32;2.08;;;8.50;99.90;;;;;;5135162;27;20296;-68
2022/02/15 04:36:07;;;;;;;1.98;1.77;;;8.50;99.90;;;;;;5135119;27;20243;-68
2022/02/15 04:38:35;;;;;;;2.53;2.10;;;8.50;99.90;;;;;;5134707;27;20217;-68
2022/02/15 04:41:02;;;;;;;2.35;2.10;;;8.50;99.90;;;;;;5134973;27;20203;-67
2022/02/15 04:43:29;;;;;;;3.25;2.17;;;8.50;99.90;;;;;;5134951;27;20207;-68
2022/02/15 04:45:56;;;;;;;2.53;2.35;;;8.50;99.90;;;;;;5134922;27;20248;-68
2022/02/15 04:48:22;;;;;;;2.58;2.10;;;8.50;99.90;;;;;;5134991;27;20279;-68
2022/02/15 04:50:49;;;;;;;2.65;2.20;;;8.50;99.90;;;;;;5134991;27;20292;-67
2022/02/15 04:53:16;;;;;;;5.82;2.25;;;8.50;99.90;;;;;;5134926;27;20596;-68
2022/02/15 04:55:45;;;;;;;2.95;2.10;;;8.50;99.90;;;;;;5134490;27;20699;-68
2022/02/15 04:58:12;;;;;;;10.77;4.95;;;8.50;99.90;;;;;;5134843;27;20289;-68
2022/02/15 05:00:39;;;;;;;3.33;2.75;;;8.50;99.90;;;;;;5134397;27;20208;-68
2022/02/15 05:03:05;;;;;;;2.60;2.20;;;8.50;99.90;;;;;;5134498;27;20207;-68
2022/02/15 05:05:32;;;;;;;2.95;2.28;;;8.50;99.90;;;;;;5133937;27;20246;-68
2022/02/15 05:07:59;;;;;;;3.67;2.33;;;8.50;99.90;;;;;;5134728;27;20193;-68
2022/02/15 05:10:27;;;;;;;3.35;3.05;;;8.60;99.90;;;;;;5134548;27;20228;-68
2022/02/15 05:12:55;;;;;;;3.00;2.70;;;8.60;99.90;;;;;;5134640;27;20205;-68
2022/02/15 05:15:22;;;;;;;3.13;2.55;;;8.60;99.90;;;;;;5134446;28;20223;-68
2022/02/15 05:17:49;;;;;;;3.50;2.65;;;8.60;99.90;;;;;;5134576;27;20570;-68
2022/02/15 05:20:17;;;;;;;3.30;2.50;;;8.50;99.90;;;;;;5134624;27;20205;-67
2022/02/15 05:22:45;;;;;;;6.72;5.35;;;8.50;99.90;;;;;;5134574;27;20201;-68
2022/02/15 05:25:12;;;;;;;9.60;6.20;;;8.50;99.90;;;;;;5134874;27;20212;-67
2022/02/15 05:27:39;;;;;;;4.15;2.92;;;8.50;99.90;;;;;;5134637;27;20612;-68
2022/02/15 05:30:09;;;;;;;3.22;2.92;;;8.50;99.90;;;;;;5134679;27;20205;-68
2022/02/15 05:32:36;;;;;;;3.40;3.10;;;8.50;99.90;;;;;;5134871;27;20371;-68
2022/02/15 05:35:03;;;;;;;2.60;2.40;;;8.50;99.90;;;;;;5134664;27;20291;-68
2022/02/15 05:37:30;;;;;;;4.10;2.50;;;8.50;99.90;;;;;;5134391;27;20201;-68
2022/02/15 05:39:57;;;;;;;2.60;2.40;;;8.60;99.90;;;;;;5134178;27;20659;-68
2022/02/15 05:42:24;;;;;;;4.15;2.40;;;8.60;99.90;;;;;;5134490;27;20206;-68
2022/02/15 05:44:51;;;;;;;3.00;2.70;;;8.60;99.90;;;;;;5134165;27;20291;-68
2022/02/15 05:47:19;;;;;;;2.63;2.42;;;8.70;99.90;;;;;;5134348;27;20305;-68
2022/02/15 05:52:26;;;;;;;1.80;1.70;;;8.70;99.90;;;;;;5111058;27;20225;-68
2022/02/15 05:54:53;;;;;;;2.47;2.28;;;8.80;99.90;;;;;;5134217;27;20227;-68
2022/02/15 05:57:20;;;;;;;2.20;2.00;;;8.80;99.90;;;;;;5134300;27;20312;-68
2022/02/15 05:59:47;;;;;;;2.35;2.15;;;8.80;99.90;;;;;;5134305;27;20627;-67
2022/02/15 06:02:13;;;;;;;3.17;2.40;;;8.80;99.90;;;;;;5134498;27;20203;-68
2022/02/15 06:04:42;;;;;;;12.25;7.05;;;8.80;99.90;;;;;;5134306;27;20204;-68
2022/02/15 06:07:08;;;;;;;3.72;2.50;;;8.70;99.90;;;;;;5134362;27;20225;-68
2022/02/15 06:09:35;;;;;;;2.88;2.67;;;8.60;99.90;;;;;;5134177;27;20287;-68
2022/02/15 06:12:02;;;;;;;2.47;1.98;;;8.70;99.90;;;;;;5133768;27;20738;-68
2022/02/15 06:14:29;;;;;;;2.40;1.80;;;8.70;99.90;;;;;;5134219;27;20205;-68
2022/02/15 06:16:56;;;;;;;2.47;2.28;;;8.70;99.90;;;;;;5134564;27;20308;-68
2022/02/15 06:19:22;;;;;;;2.67;2.30;;;8.70;99.90;;;;;;5137987;27;20221;-68
2022/02/15 06:21:51;;;;;;;2.80;2.20;;;8.70;99.90;;;;;;5138345;27;20205;-68
2022/02/15 06:24:18;;;;;;;2.55;2.10;;;8.70;99.90;;;;;;5137708;27;20697;-68
2022/02/15 06:26:45;;;;;;;3.55;1.95;;;8.70;99.90;;;;;;5137367;27;20228;-69
2022/02/15 06:29:12;;;;;;;2.00;1.90;;;8.70;99.90;;;;;;5137768;27;20196;-68
2022/02/15 06:31:39;;;;;;;3.90;2.10;;;8.70;99.90;;;;;;5137222;27;20204;-68
2022/02/15 06:34:06;;;;;;;5.38;4.30;;;8.70;99.90;;;;;;5137497;27;20249;-68
2022/02/15 06:36:33;;;;;;;2.25;2.10;;;8.80;99.90;;;;;;5137286;27;20223;-68
2022/02/15 06:39:01;;;;;;;1.98;1.88;;;8.70;99.90;;;;;;5137572;27;20573;-68
2022/02/15 06:41:28;;;;;;;3.25;2.15;;;8.60;99.90;;;;;;5137577;27;20296;-67
2022/02/15 06:43:55;;;;;;;2.30;2.10;;;8.60;99.90;;;;;;5137398;27;20203;-68
2022/02/15 06:46:22;;;;;;;3.40;2.20;;;8.60;99.90;;;;;;5137414;27;20227;-68
2022/02/15 06:48:49;;;;;;;4.78;2.60;;;8.60;99.90;;;;;;5137450;27;20200;-68
2022/02/15 06:51:15;;;;;;;2.40;2.20;;;8.60;99.90;;;;;;5136734;27;20292;-68
2022/02/15 06:53:42;;;;;;;5.88;4.25;;;8.50;99.90;;;;;;5137267;27;20205;-68
2022/02/15 06:56:11;;;;;;;3.30;2.15;;;8.50;99.90;;;;;;5137134;27;20221;-68
2022/02/15 06:58:38;;;;;;;2.72;2.00;;;8.50;99.90;;;;;;5137226;27;20217;-68
2022/02/15 07:01:05;;;;;;;2.97;2.30;;;8.50;99.90;;;;;;5136697;27;20662;-67
2022/02/15 07:03:32;;;;;;;3.55;2.65;;;8.40;99.90;;;;;;5137125;27;20283;-68
2022/02/15 07:05:59;;;;;;;2.33;2.00;;;8.50;99.90;;;;;;5137083;27;20307;-68
2022/02/15 07:08:26;;;;;;;2.45;2.00;;;8.50;99.90;;;;;;5136969;27;20283;-68
2022/02/15 07:10:54;;;;;;;2.33;2.00;;;8.50;99.90;;;;;;5136840;27;20299;-68
2022/02/15 07:13:22;;;;;;;1.92;1.80;;;8.50;99.90;;;;;;5136903;27;20258;-68
2022/02/15 07:15:50;;;;;;;4.85;3.08;;;8.50;99.90;;;;;;5136611;27;20236;-68
2022/02/15 07:18:16;;;;;;;2.83;2.20;;;8.50;99.90;;;;;;5136651;27;20217;-68
2022/02/15 07:20:43;;;;;;;2.60;2.30;;;8.50;99.90;;;;;;5136581;27;20292;-67
2022/02/15 07:23:10;;;;;;;4.10;3.60;;;8.50;99.90;;;;;;5136652;27;20217;-68
2022/02/15 07:25:37;;;;;;;2.78;2.58;;;8.60;99.90;;;;;;5136350;27;20307;-68
2022/02/15 07:28:05;;;;;;;2.40;2.20;;;8.50;99.90;;;;;;5136159;27;20610;-68
2022/02/15 07:30:35;;;;;;;1.88;1.73;;;8.50;99.90;;;;;;5135907;27;20203;-67
2022/02/15 07:33:04;;;;;;;1.95;1.75;;;8.50;99.90;;;;;;5136383;27;20670;-68
2022/02/15 07:35:31;;;;;;;2.60;1.90;;;8.50;99.90;;;;;;5136236;27;20628;-68
2022/02/15 07:37:58;;;;;;;1.80;1.70;;;8.50;99.90;;;;;;5135981;27;20296;-68
2022/02/15 07:40:25;;;;;;;2.35;1.98;;;8.60;99.90;;;;;;5136027;27;20287;-67
2022/02/15 07:42:52;;;;;;;1.95;1.75;;;8.60;99.90;;;;;;5136269;27;20542;-68
2022/02/15 07:45:19;;;;;;;1.90;1.75;;;8.60;99.90;;;;;;5136312;27;20230;-68
2022/02/15 07:47:50;;;;;;;6.28;4.82;;;8.60;99.90;;;;;;5135891;27;20196;-68
2022/02/15 07:50:21;;;;;;;4.72;3.72;;;8.70;99.90;;;;;;5135955;27;20185;-67
2022/02/15 07:52:50;;;;;;;4.15;1.83;;;8.70;99.90;;;;;;5136138;27;20191;-68
2022/02/15 07:55:18;;;;;;;2.70;1.80;;;8.70;99.90;;;;;;5136209;27;20246;-68
2022/02/15 07:57:45;;;;;;;2.08;1.80;;;8.80;99.90;;;;;;5135893;27;20205;-68
2022/02/15 08:00:18;;;;;;;3.20;1.52;;;8.80;99.90;;;;;;5135424;27;20690;-67
2022/02/15 08:02:45;;;;;;;1.52;1.40;;;8.90;99.90;;;;;;5135640;27;20666;-68
2022/02/15 08:05:14;;;;;;;1.73;1.63;;;8.90;99.90;;;;;;5135666;27;20197;-67
2022/02/15 08:07:40;;;;;;;2.28;1.80;;;8.80;99.90;;;;;;5135688;27;20531;-68
2022/02/15 08:10:08;;;;;;;2.00;1.80;;;8.80;99.90;;;;;;5135649;27;20201;-68
2022/02/15 08:12:36;;;;;;;4.25;2.00;;;8.90;99.90;;;;;;5135579;27;20570;-68
2022/02/15 08:15:03;;;;;;;1.95;1.80;;;8.90;99.90;;;;;;5135510;27;20208;-68
2022/02/15 08:17:29;;;;;;;2.20;2.10;;;8.90;99.90;;;;;;5135474;27;20201;-68
2022/02/15 08:19:57;;;;;;;1.67;1.58;;;8.90;99.90;;;;;;5135252;27;20217;-68
2022/02/15 08:22:25;;;;;;;1.67;1.58;;;8.90;99.90;;;;;;5135480;27;20287;-68
2022/02/15 08:24:52;;;;;;;1.83;1.73;;;9.00;99.90;;;;;;5135008;27;20291;-68
2022/02/15 08:27:18;;;;;;;1.70;1.60;;;9.00;99.90;;;;;;5135795;27;20236;-68
2022/02/15 08:29:45;;;;;;;1.77;1.50;;;9.00;99.90;;;;;;5134997;27;20200;-68
2022/02/15 08:32:14;;;;;;;2.10;1.90;;;8.90;99.90;;;;;;5134184;27;20433;-68
2022/02/15 08:34:41;;;;;;;2.45;1.80;;;9.00;99.90;;;;;;5135421;27;20571;-68
2022/02/15 08:37:08;;;;;;;4.60;3.63;;;9.00;99.90;;;;;;5135104;27;20224;-68
2022/02/15 08:39:36;;;;;;;2.20;2.00;;;9.10;99.90;;;;;;5134123;27;20449;-68
2022/02/15 08:42:05;;;;;;;1.58;1.48;;;9.20;99.90;;;;;;5135114;27;20539;-68
2022/02/15 08:44:34;;;;;;;1.52;1.42;;;9.20;99.90;;;;;;5135022;27;20201;-68
2022/02/15 08:47:01;;;;;;;4.25;1.80;;;9.20;99.90;;;;;;5134980;27;20221;-68
2022/02/15 08:49:28;;;;;;;4.05;1.90;;;9.20;99.90;;;;;;5135050;27;20203;-68
2022/02/15 08:51:55;;;;;;;1.88;1.48;;;9.20;99.90;;;;;;5134696;27;20207;-68
2022/02/15 08:54:22;;;;;;;1.80;1.33;;;9.30;99.90;;;;;;5134853;27;20242;-68
2022/02/15 08:56:50;;;;;;;3.58;1.30;;;9.30;99.90;;;;;;5134891;27;20311;-68
2022/02/15 08:59:17;;;;;;;1.42;1.30;;;9.30;99.90;;;;;;5134586;27;20246;-68
2022/02/15 09:01:44;;;;;;;2.03;1.80;;;9.30;99.90;;;;;;5134626;27;20292;-68
2022/02/15 09:04:13;;;;;;;4.40;3.00;;;9.40;99.90;;;;;;5132621;27;20232;-68
2022/02/15 09:06:41;;;;;;;2.10;1.52;;;9.40;99.90;;;;;;5110732;28;20225;-68
2022/02/15 09:09:09;;;;;;;2.78;1.70;;;9.40;99.90;;;;;;5113192;28;20216;-67
2022/02/15 09:11:36;;;;;;;1.95;1.75;;;9.30;99.90;;;;;;5112981;28;20201;-68
2022/02/15 09:14:05;;;;;;;2.30;1.95;;;9.40;99.90;;;;;;5113110;28;20207;-68
2022/02/15 09:16:32;;;;;;;2.35;1.83;;;9.40;99.90;;;;;;5113064;28;20561;-68
2022/02/15 09:18:59;;;;;;;1.55;1.45;;;9.50;99.90;;;;;;5112582;28;20733;-68
2022/02/15 09:21:26;;;;;;;1.50;1.40;;;9.50;99.90;;;;;;5112826;28;20205;-67
2022/02/15 09:23:53;;;;;;;1.40;1.30;;;9.50;99.90;;;;;;5113082;28;20608;-67
2022/02/15 09:26:20;;;;;;;1.35;1.20;;;9.40;99.90;;;;;;5112737;28;20304;-67
2022/02/15 09:28:47;;;;;;;1.00;1.00;;;9.40;99.90;;;;;;5112513;28;20244;-67
2022/02/15 09:31:15;;;;;;;1.67;1.38;;;9.30;99.90;;;;;;5112572;28;20289;-67
2022/02/15 09:33:42;;;;;;;1.85;1.40;;;9.30;99.90;;;;;;5112408;28;20300;-67
2022/02/15 09:36:09;;;;;;;2.60;1.75;;;9.30;99.90;;;;;;5112874;28;20225;-67
2022/02/15 09:38:36;;;;;;;2.35;1.40;;;9.30;99.90;;;;;;5112544;28;20202;-67
2022/02/15 09:41:07;;;;;;;1.35;1.25;;;9.30;99.90;;;;;;5112744;28;20563;-67
2022/02/15 09:43:35;;;;;;;2.28;2.08;;;9.40;99.90;;;;;;5112591;28;20243;-67
2022/02/15 09:46:02;;;;;;;2.20;1.90;;;9.30;99.90;;;;;;5112679;28;20312;-67
2022/02/15 09:48:31;;;;;;;2.20;1.95;;;9.40;99.90;;;;;;5112564;28;20548;-67
2022/02/15 09:50:59;;;;;;;2.20;1.70;;;9.50;99.90;;;;;;5112805;28;20207;-67
2022/02/15 09:53:26;;;;;;;2.80;2.05;;;9.50;99.90;;;;;;5115831;28;20205;-67
2022/02/15 09:55:53;;;;;;;3.78;2.15;;;9.50;99.90;;;;;;5116504;28;20742;-67
2022/02/15 09:58:20;;;;;;;2.35;2.08;;;9.70;99.90;;;;;;5116467;28;20207;-67
2022/02/15 10:00:47;;;;;;;2.35;2.15;;;9.70;99.90;;;;;;5116000;28;20644;-67
2022/02/15 10:03:15;;;;;;;2.50;2.28;;;9.70;99.90;;;;;;5116483;28;20228;-67
2022/02/15 10:05:48;;;;;;;2.38;2.17;;;9.80;99.90;;;;;;5116391;28;20274;-67
2022/02/15 10:08:16;;;;;;;2.60;2.15;;;10.10;99.90;;;;;;5116333;28;20552;-67
2022/02/15 10:10:43;;;;;;;2.28;2.10;;;10.40;99.90;;;;;;5116221;27;20284;-68
2022/02/15 10:13:14;;;;;;;2.17;2.05;;;10.30;99.90;;;;;;5116431;28;20202;-68
2022/02/15 10:15:44;;;;;;;2.40;2.20;;;10.30;99.90;;;;;;5116301;28;20253;-68
2022/02/15 10:18:12;;;;;;;4.15;3.50;;;10.50;99.90;;;;;;5116682;28;20198;-69
2022/02/15 10:20:44;;;;;;;3.60;2.40;;;10.60;99.90;;;;;;5116106;28;20225;-68
2022/02/15 10:23:20;;;;;;;2.55;2.25;;;10.60;99.90;;;;;;5116329;28;20212;-68
2022/02/15 10:25:48;;;;;;;2.33;2.13;;;10.70;99.60;;;;;;5116089;28;20228;-68
2022/02/15 10:28:16;;;;;;;2.58;2.33;;;10.60;99.50;;;;;;5116091;28;20241;-68
2022/02/15 10:30:49;;;;;;;3.00;2.17;;;10.50;99.30;;;;;;5115732;28;20592;-68
2022/02/15 10:33:17;;;;;;;3.25;2.17;;;10.40;99.20;;;;;;5115950;28;20304;-70
2022/02/15 10:35:54;;;;;;;2.15;2.05;;;10.40;99.50;;;;;;5115543;28;20225;-69
2022/02/15 10:38:33;;;;;;;3.15;2.20;;;10.30;99.50;;;;;;5115508;28;20644;-69
2022/02/15 10:41:03;;;;;;;4.43;2.30;;;10.30;99.50;;;;;;5115751;28;20227;-69
2022/02/15 10:43:41;;;;;;;6.35;2.45;;;10.20;98.70;;;;;;5116169;28;20202;-68
2022/02/15 10:46:12;;;;;;;2.25;2.05;;;9.90;98.20;;;;;;5115489;28;20568;-68
2022/02/15 10:48:39;;;;;;;1.75;1.63;;;9.80;99.00;;;;;;5115233;28;20209;-68
2022/02/15 10:51:08;;;;;;;2.58;1.98;;;9.80;99.00;;;;;;5115148;28;20229;-68
2022/02/15 10:53:35;;;;;;;1.92;1.63;;;9.80;98.70;;;;;;5115496;28;20205;-68
2022/02/15 10:56:03;;;;;;;2.10;1.65;;;9.90;98.30;;;;;;5115541;28;20649;-68
2022/02/15 10:58:32;;;;;;;1.67;1.50;;;9.90;98.50;;;;;;5115245;28;20201;-68
2022/02/15 11:01:00;;;;;;;2.53;1.65;;;9.90;98.60;;;;;;5115048;28;20694;-69
2022/02/15 11:03:31;;;;;;;2.03;1.90;;;9.90;98.30;;;;;;5114876;28;20210;-69
2022/02/15 11:05:58;;;;;;;2.42;2.22;;;9.90;98.50;;;;;;5116346;28;20224;-70
2022/02/15 11:08:28;;;;;;;2.25;2.05;;;9.90;98.50;;;;;;5116839;28;20243;-69
2022/02/15 11:11:02;;;;;;;1.88;1.55;;;9.90;98.30;;;;;;5116551;28;20289;-68
2022/02/15 11:13:30;;;;;;;1.60;1.50;;;9.80;98.50;;;;;;5116356;28;20211;-69
2022/02/15 11:15:57;;;;;;;3.45;1.80;;;9.80;98.80;;;;;;5116347;28;20748;-68
2022/02/15 11:18:31;;;;;;;1.80;1.63;;;9.70;98.90;;;;;;5116255;28;20567;-68
2022/02/15 11:20:58;;;;;;;2.17;1.40;;;9.70;99.00;;;;;;5116079;28;20221;-68
2022/02/15 11:23:28;;;;;;;1.50;1.40;;;9.60;98.70;;;;;;5116647;28;20208;-68
2022/02/15 11:26:10;;;;;;;5.35;1.40;;;9.50;98.60;;;;;;5116039;28;20312;-69
2022/02/15 11:28:47;;;;;;;1.48;1.30;;;9.50;99.00;;;;;;5116134;28;20663;-69
2022/02/15 11:31:25;;;;;;;3.50;2.40;;;9.40;98.40;;;;;;5115951;28;20220;-68
2022/02/15 11:33:53;;;;;;;3.35;1.77;;;9.50;98.40;;;;;;5115930;28;20212;-69
2022/02/15 11:36:23;;;;;;;1.75;1.65;;;9.50;99.00;;;;;;5115690;28;20308;-69
2022/02/15 11:38:56;;;;;;;2.60;1.80;;;9.50;98.70;;;;;;5116658;28;20202;-68
2022/02/15 11:41:24;;;;;;;2.42;1.63;;;9.60;98.60;;;;;;5115810;28;20222;-68
2022/02/15 11:43:56;;;;;;;1.80;1.63;;;9.60;98.10;;;;;;5115790;28;20201;-68
2022/02/15 11:46:30;;;;;;;1.85;1.40;;;9.60;97.80;;;;;;5115510;28;20349;-68
2022/02/15 11:49:08;;;;;;;1.80;1.70;;;9.60;98.00;;;;;;5115852;28;20201;-68
2022/02/15 11:51:36;;;;;;;1.60;1.50;;;9.60;97.90;;;;;;5115294;28;20239;-68
2022/02/15 11:54:05;;;;;;;2.40;1.63;;;9.50;96.70;;;;;;5115455;28;20310;-68
2022/02/15 11:56:32;;;;;;;1.50;1.40;;;9.40;96.80;;;;;;5115503;28;20225;-68
2022/02/15 11:59:00;;;;;;;1.60;1.42;;;9.50;96.70;;;;;;5115492;28;20206;-68
2022/02/15 12:01:28;;;;;;;2.17;1.98;;;9.60;96.10;;;;;;5114890;28;20232;-68
2022/02/15 12:03:56;;;;;;;1.60;1.42;;;9.70;95.40;;;;;;5115417;28;20292;-68
2022/02/15 12:06:34;;;;;;;1.75;1.27;;;9.80;95.10;;;;;;5114939;27;20228;-68
2022/02/15 12:09:01;;;;;;;4.20;3.30;;;9.90;95.00;;;;;;5115595;28;20204;-69
2022/02/15 12:11:36;;;;;;;3.47;2.25;;;9.90;95.30;;;;;;5114808;27;20202;-68
2022/02/15 12:14:10;;;;;;;2.10;1.88;;;9.80;95.80;;;;;;5115671;28;20639;-68
2022/02/15 12:16:47;;;;;;;2.67;2.00;;;9.80;96.00;;;;;;5114917;28;20229;-68
2022/02/15 12:19:26;;;;;;;5.70;1.88;;;9.60;95.90;;;;;;5115090;28;20201;-68
2022/02/15 12:21:54;;;;;;;2.28;2.05;;;9.70;95.90;;;;;;5115043;28;20574;-68
2022/02/15 12:24:21;;;;;;;2.17;1.88;;;9.90;96.10;;;;;;5115345;28;20240;-68
2022/02/15 12:26:50;;;;;;;2.22;2.03;;;9.80;95.90;;;;;;5115124;28;20224;-69
2022/02/15 12:29:17;;;;;;;2.35;1.95;;;10.00;95.20;;;;;;5115095;28;20296;-68
2022/02/15 12:31:44;;;;;;;2.30;2.10;;;10.10;95.50;;;;;;5114741;28;20618;-68
2022/02/15 12:34:14;;;;;;;3.05;2.30;;;10.30;95.10;;;;;;5114563;28;20575;-68
2022/02/15 12:36:41;;;;;;;2.13;2.00;;;10.50;95.10;;;;;;5114588;28;20221;-68
2022/02/15 12:39:10;;;;;;;2.70;2.50;;;10.30;94.90;;;;;;5114743;28;20197;-68
2022/02/15 12:41:39;;;;;;;2.60;2.40;;;10.10;94.70;;;;;;5114638;28;20225;-68
2022/02/15 12:44:07;;;;;;;2.50;2.17;;;10.10;95.00;;;;;;5114453;28;20206;-68
2022/02/15 12:46:35;;;;;;;2.50;2.30;;;10.00;95.10;;;;;;5114720;28;20221;-68
2022/02/15 12:49:02;;;;;;;2.45;2.25;;;9.90;95.70;;;;;;5114660;28;20740;-68
2022/02/15 12:51:33;;;;;;;2.70;2.30;;;9.90;95.80;;;;;;5114443;28;20200;-68
2022/02/15 12:54:01;;;;;;;2.60;2.30;;;9.70;96.30;;;;;;5114475;28;20262;-68
2022/02/15 12:56:30;;;;;;;2.38;2.17;;;9.70;96.70;;;;;;5114168;28;20252;-68
2022/02/15 12:58:58;;;;;;;4.35;2.72;;;9.80;96.90;;;;;;5114471;28;20198;-68
2022/02/15 13:01:28;;;;;;;4.07;2.30;;;9.90;97.30;;;;;;5114333;28;20387;-68
2022/02/15 13:03:56;;;;;;;3.15;2.72;;;10.00;96.40;;;;;;5114583;28;20254;-68